sensor_id;sensor_type;location;lat;lon;timestamp;pressure;altitude;pressure_sealevel;temperature;humidity
55289;BME280;41154;45.394;5.734;2022-11-20T00:01:08;96768.19;;;6.41;100.00
55289;BME280;41154;45.394;5.734;2022-11-20T00:03:34;96767.63;;;6.51;100.00
55289;BME280;41154;45.394;5.734;2022-11-20T00:06:03;96767.28;;;6.47;100.00
55289;BME280;41154;45.394;5.734;2022-11-20T00:08:29;96771.88;;;6.28;100.00
55289;BME280;41154;45.394;5.734;2022-11-20T00:10:55;96773.13;;;6.26;100.00
55289;BME280;41154;45.394;5.734;2022-11-20T00:13:21;96777.69;;;6.37;100.00
55289;BME280;41154;45.394;5.734;2022-11-20T00:15:47;96778.06;;;6.10;100.00
55289;BME280;41154;45.394;5.734;2022-11-20T00:18:12;96777.44;;;5.97;100.00
55289;BME280;41154;45.394;5.734;2022-11-20T00:20:38;96782.38;;;5.93;100.00
55289;BME280;41154;45.394;5.734;2022-11-20T00:23:04;96780.72;;;6.10;100.00
55289;BME280;41154;45.394;5.734;2022-11-20T00:25:31;96779.53;;;6.25;100.00
55289;BME280;41154;45.394;5.734;2022-11-20T00:27:58;96790.63;;;6.22;100.00
55289;BME280;41154;45.394;5.734;2022-11-20T00:30:24;96795.56;;;5.88;100.00
55289;BME280;41154;45.394;5.734;2022-11-20T00:32:50;96785.38;;;5.85;100.00
55289;BME280;41154;45.394;5.734;2022-11-20T00:35:15;96792.25;;;6.23;100.00
55289;BME280;41154;45.394;5.734;2022-11-20T00:37:41;96788.94;;;6.09;100.00
55289;BME280;41154;45.394;5.734;2022-11-20T00:40:07;96798.63;;;6.22;100.00
55289;BME280;41154;45.394;5.734;2022-11-20T00:42:33;96797.91;;;6.15;100.00
55289;BME280;41154;45.394;5.734;2022-11-20T00:44:59;96799.66;;;6.21;100.00
55289;BME280;41154;45.394;5.734;2022-11-20T00:47:25;96797.50;;;5.99;100.00
55289;BME280;41154;45.394;5.734;2022-11-20T00:49:50;96800.28;;;6.04;100.00
55289;BME280;41154;45.394;5.734;2022-11-20T00:52:16;96810.44;;;6.26;100.00
55289;BME280;41154;45.394;5.734;2022-11-20T00:54:42;96809.06;;;6.35;100.00
55289;BME280;41154;45.394;5.734;2022-11-20T00:57:08;96817.28;;;6.34;100.00
55289;BME280;41154;45.394;5.734;2022-11-20T00:59:33;96812.31;;;6.37;100.00
55289;BME280;41154;45.394;5.734;2022-11-20T01:01:59;96822.16;;;6.37;100.00
55289;BME280;41154;45.394;5.734;2022-11-20T01:04:25;96820.75;;;6.34;100.00
55289;BME280;41154;45.394;5.734;2022-11-20T01:06:50;96822.31;;;5.93;100.00
55289;BME280;41154;45.394;5.734;2022-11-20T01:09:16;96820.41;;;6.00;100.00
55289;BME280;41154;45.394;5.734;2022-11-20T01:11:43;96816.13;;;5.99;100.00
55289;BME280;41154;45.394;5.734;2022-11-20T01:14:12;96816.78;;;5.94;100.00
55289;BME280;41154;45.394;5.734;2022-11-20T01:16:41;96818.47;;;5.89;100.00
55289;BME280;41154;45.394;5.734;2022-11-20T01:19:11;96820.06;;;5.78;100.00
55289;BME280;41154;45.394;5.734;2022-11-20T01:21:39;96813.47;;;5.99;100.00
55289;BME280;41154;45.394;5.734;2022-11-20T01:24:07;96822.59;;;6.22;100.00
55289;BME280;41154;45.394;5.734;2022-11-20T01:26:35;96817.06;;;6.35;100.00
55289;BME280;41154;45.394;5.734;2022-11-20T01:29:03;96820.66;;;5.99;100.00
55289;BME280;41154;45.394;5.734;2022-11-20T01:31:36;96822.88;;;6.14;100.00
55289;BME280;41154;45.394;5.734;2022-11-20T01:34:04;96824.97;;;5.93;100.00
55289;BME280;41154;45.394;5.734;2022-11-20T01:36:32;96826.78;;;5.81;100.00
55289;BME280;41154;45.394;5.734;2022-11-20T01:39:00;96826.84;;;5.74;100.00
55289;BME280;41154;45.394;5.734;2022-11-20T01:41:28;96827.50;;;5.88;100.00
55289;BME280;41154;45.394;5.734;2022-11-20T01:44:15;96831.84;;;6.19;100.00
55289;BME280;41154;45.394;5.734;2022-11-20T01:46:57;96825.16;;;6.28;100.00
55289;BME280;41154;45.394;5.734;2022-11-20T01:49:29;96827.38;;;6.32;100.00
55289;BME280;41154;45.394;5.734;2022-11-20T01:51:59;96828.41;;;6.30;100.00
55289;BME280;41154;45.394;5.734;2022-11-20T01:54:52;96822.91;;;5.95;100.00
55289;BME280;41154;45.394;5.734;2022-11-20T01:57:20;96821.75;;;6.09;100.00
55289;BME280;41154;45.394;5.734;2022-11-20T01:59:57;96824.00;;;5.87;100.00
55289;BME280;41154;45.394;5.734;2022-11-20T02:02:25;96819.22;;;5.96;100.00
55289;BME280;41154;45.394;5.734;2022-11-20T02:04:54;96818.63;;;6.13;100.00
55289;BME280;41154;45.394;5.734;2022-11-20T02:07:21;96820.84;;;6.27;100.00
55289;BME280;41154;45.394;5.734;2022-11-20T02:09:48;96819.16;;;6.33;100.00
55289;BME280;41154;45.394;5.734;2022-11-20T02:12:13;96813.53;;;6.23;100.00
55289;BME280;41154;45.394;5.734;2022-11-20T02:15:00;96821.19;;;6.19;100.00
55289;BME280;41154;45.394;5.734;2022-11-20T02:17:25;96819.59;;;5.81;100.00
55289;BME280;41154;45.394;5.734;2022-11-20T02:19:51;96827.06;;;5.91;100.00
55289;BME280;41154;45.394;5.734;2022-11-20T02:22:28;96811.38;;;6.01;100.00
55289;BME280;41154;45.394;5.734;2022-11-20T02:24:58;96814.41;;;6.05;100.00
55289;BME280;41154;45.394;5.734;2022-11-20T02:27:25;96823.53;;;5.97;100.00
55289;BME280;41154;45.394;5.734;2022-11-20T02:29:52;96825.44;;;5.90;100.00
55289;BME280;41154;45.394;5.734;2022-11-20T02:32:27;96814.66;;;6.03;100.00
55289;BME280;41154;45.394;5.734;2022-11-20T02:34:53;96811.66;;;6.11;100.00
55289;BME280;41154;45.394;5.734;2022-11-20T02:37:20;96823.50;;;6.16;100.00
55289;BME280;41154;45.394;5.734;2022-11-20T02:39:49;96820.22;;;5.95;100.00
55289;BME280;41154;45.394;5.734;2022-11-20T02:42:16;96810.09;;;5.73;100.00
55289;BME280;41154;45.394;5.734;2022-11-20T02:44:42;96802.50;;;5.89;100.00
55289;BME280;41154;45.394;5.734;2022-11-20T02:47:08;96815.69;;;5.65;100.00
55289;BME280;41154;45.394;5.734;2022-11-20T02:49:35;96800.63;;;5.59;100.00
55289;BME280;41154;45.394;5.734;2022-11-20T02:52:06;96802.13;;;5.55;100.00
55289;BME280;41154;45.394;5.734;2022-11-20T02:54:37;96812.31;;;5.58;100.00
55289;BME280;41154;45.394;5.734;2022-11-20T02:57:04;96807.00;;;5.58;100.00
55289;BME280;41154;45.394;5.734;2022-11-20T02:59:37;96810.59;;;5.64;100.00
55289;BME280;41154;45.394;5.734;2022-11-20T03:02:05;96813.56;;;5.55;100.00
55289;BME280;41154;45.394;5.734;2022-11-20T03:04:34;96811.13;;;5.54;100.00
55289;BME280;41154;45.394;5.734;2022-11-20T03:07:00;96810.91;;;5.55;100.00
55289;BME280;41154;45.394;5.734;2022-11-20T03:09:29;96812.31;;;5.58;100.00
55289;BME280;41154;45.394;5.734;2022-11-20T03:11:58;96814.53;;;5.61;100.00
55289;BME280;41154;45.394;5.734;2022-11-20T03:14:28;96808.25;;;5.55;100.00
55289;BME280;41154;45.394;5.734;2022-11-20T03:16:56;96808.75;;;5.46;100.00
55289;BME280;41154;45.394;5.734;2022-11-20T03:19:22;96808.13;;;5.81;100.00
55289;BME280;41154;45.394;5.734;2022-11-20T03:21:48;96817.16;;;5.98;100.00
55289;BME280;41154;45.394;5.734;2022-11-20T03:24:14;96819.53;;;6.06;100.00
55289;BME280;41154;45.394;5.734;2022-11-20T03:26:40;96824.84;;;6.06;100.00
55289;BME280;41154;45.394;5.734;2022-11-20T03:29:06;96825.44;;;6.08;100.00
55289;BME280;41154;45.394;5.734;2022-11-20T03:31:36;96829.78;;;6.03;100.00
55289;BME280;41154;45.394;5.734;2022-11-20T03:34:03;96832.69;;;6.01;100.00
55289;BME280;41154;45.394;5.734;2022-11-20T03:36:30;96836.97;;;6.02;100.00
55289;BME280;41154;45.394;5.734;2022-11-20T03:38:57;96839.69;;;5.96;100.00
55289;BME280;41154;45.394;5.734;2022-11-20T03:41:25;96849.09;;;5.98;100.00
55289;BME280;41154;45.394;5.734;2022-11-20T03:43:56;96842.47;;;5.70;100.00
55289;BME280;41154;45.394;5.734;2022-11-20T03:46:23;96842.81;;;5.92;100.00
55289;BME280;41154;45.394;5.734;2022-11-20T03:48:49;96845.63;;;5.79;100.00
55289;BME280;41154;45.394;5.734;2022-11-20T03:51:16;96850.44;;;5.70;100.00
55289;BME280;41154;45.394;5.734;2022-11-20T03:53:43;96850.38;;;5.58;100.00
55289;BME280;41154;45.394;5.734;2022-11-20T03:56:10;96848.16;;;5.74;100.00
55289;BME280;41154;45.394;5.734;2022-11-20T03:58:38;96851.06;;;5.84;100.00
55289;BME280;41154;45.394;5.734;2022-11-20T04:03:34;96858.22;;;5.53;100.00
55289;BME280;41154;45.394;5.734;2022-11-20T04:06:11;96858.25;;;5.47;100.00
55289;BME280;41154;45.394;5.734;2022-11-20T04:08:37;96866.47;;;5.45;100.00
55289;BME280;41154;45.394;5.734;2022-11-20T04:13:35;96866.09;;;5.42;100.00
55289;BME280;41154;45.394;5.734;2022-11-20T04:16:01;96857.81;;;5.50;100.00
55289;BME280;41154;45.394;5.734;2022-11-20T04:18:27;96872.38;;;5.47;100.00
55289;BME280;41154;45.394;5.734;2022-11-20T04:20:53;96870.97;;;5.45;100.00
55289;BME280;41154;45.394;5.734;2022-11-20T04:23:18;96868.03;;;5.71;100.00
55289;BME280;41154;45.394;5.734;2022-11-20T04:25:44;96873.28;;;5.78;100.00
55289;BME280;41154;45.394;5.734;2022-11-20T04:28:10;96871.56;;;5.65;100.00
55289;BME280;41154;45.394;5.734;2022-11-20T04:30:35;96871.56;;;5.84;100.00
55289;BME280;41154;45.394;5.734;2022-11-20T04:33:01;96869.53;;;5.67;100.00
55289;BME280;41154;45.394;5.734;2022-11-20T04:35:27;96866.47;;;5.82;100.00
55289;BME280;41154;45.394;5.734;2022-11-20T04:37:52;96870.53;;;5.66;100.00
55289;BME280;41154;45.394;5.734;2022-11-20T04:40:18;96858.34;;;5.58;100.00
55289;BME280;41154;45.394;5.734;2022-11-20T04:42:44;96862.25;;;5.74;100.00
55289;BME280;41154;45.394;5.734;2022-11-20T04:45:10;96864.13;;;5.74;100.00
55289;BME280;41154;45.394;5.734;2022-11-20T04:47:35;96865.97;;;5.73;100.00
55289;BME280;41154;45.394;5.734;2022-11-20T04:50:01;96863.97;;;5.69;100.00
55289;BME280;41154;45.394;5.734;2022-11-20T04:52:27;96863.16;;;5.68;100.00
55289;BME280;41154;45.394;5.734;2022-11-20T04:54:52;96865.66;;;5.63;100.00
55289;BME280;41154;45.394;5.734;2022-11-20T04:57:19;96872.41;;;5.66;100.00
55289;BME280;41154;45.394;5.734;2022-11-20T04:59:45;96876.22;;;5.70;100.00
55289;BME280;41154;45.394;5.734;2022-11-20T05:02:10;96871.34;;;5.67;100.00
55289;BME280;41154;45.394;5.734;2022-11-20T05:04:36;96873.94;;;5.36;100.00
55289;BME280;41154;45.394;5.734;2022-11-20T05:07:02;96870.53;;;5.48;100.00
55289;BME280;41154;45.394;5.734;2022-11-20T05:09:28;96872.69;;;5.57;100.00
55289;BME280;41154;45.394;5.734;2022-11-20T05:11:54;96873.50;;;5.58;100.00
55289;BME280;41154;45.394;5.734;2022-11-20T05:14:19;96871.97;;;5.69;100.00
55289;BME280;41154;45.394;5.734;2022-11-20T05:16:45;96869.22;;;5.57;100.00
55289;BME280;41154;45.394;5.734;2022-11-20T05:19:11;96873.13;;;5.73;100.00
55289;BME280;41154;45.394;5.734;2022-11-20T05:21:37;96869.44;;;5.55;100.00
55289;BME280;41154;45.394;5.734;2022-11-20T05:24:03;96864.69;;;5.39;100.00
55289;BME280;41154;45.394;5.734;2022-11-20T05:26:29;96866.84;;;5.49;100.00
55289;BME280;41154;45.394;5.734;2022-11-20T05:28:55;96858.13;;;5.42;100.00
55289;BME280;41154;45.394;5.734;2022-11-20T05:31:23;96859.66;;;5.31;100.00
55289;BME280;41154;45.394;5.734;2022-11-20T05:33:49;96862.81;;;5.21;100.00
55289;BME280;41154;45.394;5.734;2022-11-20T05:36:15;96867.16;;;5.15;100.00
55289;BME280;41154;45.394;5.734;2022-11-20T05:38:42;96866.50;;;5.20;100.00
55289;BME280;41154;45.394;5.734;2022-11-20T05:41:18;96872.28;;;5.35;100.00
55289;BME280;41154;45.394;5.734;2022-11-20T05:43:47;96870.53;;;5.48;100.00
55289;BME280;41154;45.394;5.734;2022-11-20T05:46:15;96864.00;;;5.44;100.00
55289;BME280;41154;45.394;5.734;2022-11-20T05:48:42;96860.69;;;5.30;100.00
55289;BME280;41154;45.394;5.734;2022-11-20T05:51:11;96853.22;;;5.20;100.00
55289;BME280;41154;45.394;5.734;2022-11-20T05:53:37;96854.56;;;5.29;100.00
55289;BME280;41154;45.394;5.734;2022-11-20T05:56:05;96856.22;;;5.49;100.00
55289;BME280;41154;45.394;5.734;2022-11-20T05:58:32;96860.78;;;5.60;100.00
55289;BME280;41154;45.394;5.734;2022-11-20T06:01:10;96863.13;;;5.31;100.00
55289;BME280;41154;45.394;5.734;2022-11-20T06:03:37;96850.00;;;5.36;100.00
55289;BME280;41154;45.394;5.734;2022-11-20T06:06:04;96859.53;;;5.44;100.00
55289;BME280;41154;45.394;5.734;2022-11-20T06:08:30;96864.03;;;5.25;100.00
55289;BME280;41154;45.394;5.734;2022-11-20T06:10:56;96855.28;;;5.18;100.00
55289;BME280;41154;45.394;5.734;2022-11-20T06:13:22;96859.97;;;4.97;100.00
55289;BME280;41154;45.394;5.734;2022-11-20T06:15:49;96861.94;;;4.77;100.00
55289;BME280;41154;45.394;5.734;2022-11-20T06:18:16;96850.66;;;4.81;100.00
55289;BME280;41154;45.394;5.734;2022-11-20T06:20:41;96857.41;;;4.84;100.00
55289;BME280;41154;45.394;5.734;2022-11-20T06:23:07;96865.75;;;4.88;100.00
55289;BME280;41154;45.394;5.734;2022-11-20T06:25:33;96863.47;;;5.16;100.00
55289;BME280;41154;45.394;5.734;2022-11-20T06:28:04;96864.97;;;5.31;100.00
55289;BME280;41154;45.394;5.734;2022-11-20T06:30:35;96864.75;;;5.32;100.00
55289;BME280;41154;45.394;5.734;2022-11-20T06:33:07;96863.94;;;5.32;100.00
55289;BME280;41154;45.394;5.734;2022-11-20T06:35:33;96856.75;;;5.14;100.00
55289;BME280;41154;45.394;5.734;2022-11-20T06:38:00;96859.09;;;5.03;100.00
55289;BME280;41154;45.394;5.734;2022-11-20T06:40:27;96855.31;;;4.93;100.00
55289;BME280;41154;45.394;5.734;2022-11-20T06:42:56;96850.94;;;4.98;100.00
55289;BME280;41154;45.394;5.734;2022-11-20T06:45:24;96843.59;;;5.00;100.00
55289;BME280;41154;45.394;5.734;2022-11-20T06:47:53;96859.03;;;4.85;100.00
55289;BME280;41154;45.394;5.734;2022-11-20T06:50:20;96857.41;;;4.84;100.00
55289;BME280;41154;45.394;5.734;2022-11-20T06:52:49;96855.31;;;4.93;100.00
55289;BME280;41154;45.394;5.734;2022-11-20T06:55:17;96853.16;;;5.27;100.00
55289;BME280;41154;45.394;5.734;2022-11-20T06:57:50;96860.34;;;5.45;100.00
55289;BME280;41154;45.394;5.734;2022-11-20T07:00:17;96854.56;;;5.48;100.00
55289;BME280;41154;45.394;5.734;2022-11-20T07:02:43;96852.91;;;5.10;100.00
55289;BME280;41154;45.394;5.734;2022-11-20T07:05:09;96870.16;;;5.44;100.00
55289;BME280;41154;45.394;5.734;2022-11-20T07:07:35;96864.19;;;5.49;100.00
55289;BME280;41154;45.394;5.734;2022-11-20T07:10:00;96870.66;;;5.34;100.00
55289;BME280;41154;45.394;5.734;2022-11-20T07:12:26;96869.34;;;5.25;100.00
55289;BME280;41154;45.394;5.734;2022-11-20T07:14:52;96872.00;;;5.00;100.00
55289;BME280;41154;45.394;5.734;2022-11-20T07:17:17;96875.91;;;4.97;100.00
55289;BME280;41154;45.394;5.734;2022-11-20T07:19:43;96877.03;;;4.83;100.00
55289;BME280;41154;45.394;5.734;2022-11-20T07:22:09;96883.69;;;4.99;100.00
55289;BME280;41154;45.394;5.734;2022-11-20T07:24:34;96878.13;;;5.26;100.00
55289;BME280;41154;45.394;5.734;2022-11-20T07:27:00;96887.56;;;5.21;100.00
55289;BME280;41154;45.394;5.734;2022-11-20T07:29:26;96887.88;;;5.32;100.00
55289;BME280;41154;45.394;5.734;2022-11-20T07:31:52;96888.84;;;5.37;100.00
55289;BME280;41154;45.394;5.734;2022-11-20T07:34:18;96892.34;;;5.56;100.00
55289;BME280;41154;45.394;5.734;2022-11-20T07:36:43;96896.56;;;5.64;100.00
55289;BME280;41154;45.394;5.734;2022-11-20T07:39:09;96898.13;;;5.53;100.00
55289;BME280;41154;45.394;5.734;2022-11-20T07:41:35;96892.41;;;5.50;100.00
55289;BME280;41154;45.394;5.734;2022-11-20T07:44:01;96896.63;;;5.57;100.00
55289;BME280;41154;45.394;5.734;2022-11-20T07:46:27;96898.84;;;5.61;100.00
55289;BME280;41154;45.394;5.734;2022-11-20T07:48:52;96894.06;;;5.69;100.00
55289;BME280;41154;45.394;5.734;2022-11-20T07:51:18;96895.84;;;5.75;100.00
55289;BME280;41154;45.394;5.734;2022-11-20T07:53:44;96903.75;;;5.82;100.00
55289;BME280;41154;45.394;5.734;2022-11-20T07:56:09;96913.63;;;5.93;100.00
55289;BME280;41154;45.394;5.734;2022-11-20T07:58:35;96904.03;;;5.92;100.00
55289;BME280;41154;45.394;5.734;2022-11-20T08:01:05;96901.75;;;6.15;100.00
55289;BME280;41154;45.394;5.734;2022-11-20T08:03:47;96904.75;;;6.37;100.00
55289;BME280;41154;45.394;5.734;2022-11-20T08:06:13;96894.31;;;6.35;100.00
55289;BME280;41154;45.394;5.734;2022-11-20T08:08:40;96898.38;;;6.38;100.00
55289;BME280;41154;45.394;5.734;2022-11-20T08:11:06;96898.56;;;6.55;100.00
55289;BME280;41154;45.394;5.734;2022-11-20T08:13:55;96907.97;;;6.08;100.00
55289;BME280;41154;45.394;5.734;2022-11-20T08:16:40;96908.97;;;5.89;100.00
55289;BME280;41154;45.394;5.734;2022-11-20T08:19:06;96913.84;;;5.92;100.00
55289;BME280;41154;45.394;5.734;2022-11-20T08:21:32;96909.53;;;6.16;100.00
55289;BME280;41154;45.394;5.734;2022-11-20T08:23:59;96902.94;;;6.49;100.00
55289;BME280;41154;45.394;5.734;2022-11-20T08:26:25;96907.44;;;6.00;100.00
55289;BME280;41154;45.394;5.734;2022-11-20T08:28:55;96910.94;;;6.19;100.00
55289;BME280;41154;45.394;5.734;2022-11-20T08:31:22;96907.63;;;6.35;100.00
55289;BME280;41154;45.394;5.734;2022-11-20T08:33:48;96907.66;;;6.17;100.00
55289;BME280;41154;45.394;5.734;2022-11-20T08:36:13;96900.78;;;6.27;100.00
55289;BME280;41154;45.394;5.734;2022-11-20T08:38:39;96902.94;;;6.49;100.00
55289;BME280;41154;45.394;5.734;2022-11-20T08:41:05;96908.44;;;6.66;100.00
55289;BME280;41154;45.394;5.734;2022-11-20T08:43:51;96905.28;;;6.57;100.00
55289;BME280;41154;45.394;5.734;2022-11-20T08:46:17;96906.41;;;6.50;100.00
55289;BME280;41154;45.394;5.734;2022-11-20T08:48:43;96911.78;;;6.61;100.00
55289;BME280;41154;45.394;5.734;2022-11-20T08:51:10;96909.00;;;7.10;100.00
55289;BME280;41154;45.394;5.734;2022-11-20T08:53:36;96906.19;;;6.81;100.00
55289;BME280;41154;45.394;5.734;2022-11-20T08:56:02;96908.00;;;6.39;100.00
55289;BME280;41154;45.394;5.734;2022-11-20T08:58:28;96908.44;;;6.36;100.00
55289;BME280;41154;45.394;5.734;2022-11-20T09:00:53;96911.78;;;6.61;100.00
55289;BME280;41154;45.394;5.734;2022-11-20T09:03:19;96909.34;;;6.60;100.00
55289;BME280;41154;45.394;5.734;2022-11-20T09:05:45;96911.69;;;6.68;100.00
55289;BME280;41154;45.394;5.734;2022-11-20T09:08:11;96912.31;;;6.70;100.00
55289;BME280;41154;45.394;5.734;2022-11-20T09:10:36;96907.84;;;7.18;100.00
55289;BME280;41154;45.394;5.734;2022-11-20T09:13:05;96915.31;;;7.28;100.00
55289;BME280;41154;45.394;5.734;2022-11-20T09:15:34;96914.59;;;7.44;100.00
55289;BME280;41154;45.394;5.734;2022-11-20T09:18:02;96909.59;;;7.48;100.00
55289;BME280;41154;45.394;5.734;2022-11-20T09:20:29;96922.72;;;7.85;100.00
55289;BME280;41154;45.394;5.734;2022-11-20T09:22:58;96926.53;;;7.89;100.00
55289;BME280;41154;45.394;5.734;2022-11-20T09:25:24;96926.41;;;7.13;100.00
55289;BME280;41154;45.394;5.734;2022-11-20T09:27:57;96940.44;;;7.08;100.00
55289;BME280;41154;45.394;5.734;2022-11-20T09:30:23;96935.56;;;7.05;100.00
55289;BME280;41154;45.394;5.734;2022-11-20T09:32:49;96943.84;;;6.85;100.00
55289;BME280;41154;45.394;5.734;2022-11-20T09:35:15;96949.19;;;6.85;100.00
55289;BME280;41154;45.394;5.734;2022-11-20T09:37:41;96954.53;;;6.55;100.00
55289;BME280;41154;45.394;5.734;2022-11-20T09:40:19;96958.31;;;6.47;100.00
55289;BME280;41154;45.394;5.734;2022-11-20T09:42:54;96964.69;;;6.27;100.00
55289;BME280;41154;45.394;5.734;2022-11-20T09:45:39;96969.50;;;6.37;100.00
55289;BME280;41154;45.394;5.734;2022-11-20T09:48:33;96967.75;;;6.31;100.00
55289;BME280;41154;45.394;5.734;2022-11-20T09:51:08;96965.47;;;6.46;100.00
55289;BME280;41154;45.394;5.734;2022-11-20T09:53:44;96979.63;;;6.47;100.00
55289;BME280;41154;45.394;5.734;2022-11-20T09:56:11;96981.66;;;6.63;100.00
55289;BME280;41154;45.394;5.734;2022-11-20T09:58:42;96983.53;;;6.63;100.00
55289;BME280;41154;45.394;5.734;2022-11-20T10:01:18;96979.53;;;6.54;100.00
55289;BME280;41154;45.394;5.734;2022-11-20T10:03:55;96976.94;;;6.65;100.00
55289;BME280;41154;45.394;5.734;2022-11-20T10:06:34;96982.28;;;6.65;100.00
55289;BME280;41154;45.394;5.734;2022-11-20T10:09:20;96984.59;;;7.04;100.00
55289;BME280;41154;45.394;5.734;2022-11-20T10:12:42;96984.44;;;7.29;100.00
55289;BME280;41154;45.394;5.734;2022-11-20T10:25:53;97008.97;;;7.62;100.00
55289;BME280;41154;45.394;5.734;2022-11-20T10:31:27;96997.47;;;7.61;100.00
55289;BME280;41154;45.394;5.734;2022-11-20T10:33:57;97007.94;;;7.63;100.00
55289;BME280;41154;45.394;5.734;2022-11-20T10:36:33;97020.47;;;7.62;100.00
55289;BME280;41154;45.394;5.734;2022-11-20T10:41:59;97019.69;;;7.85;100.00
55289;BME280;41154;45.394;5.734;2022-11-20T10:44:27;97021.63;;;7.54;100.00
55289;BME280;41154;45.394;5.734;2022-11-20T10:47:14;97012.81;;;7.66;100.00
55289;BME280;41154;45.394;5.734;2022-11-20T10:49:41;97006.44;;;7.67;100.00
55289;BME280;41154;45.394;5.734;2022-11-20T11:00:13;96994.44;;;7.34;100.00
55289;BME280;41154;45.394;5.734;2022-11-20T11:02:42;96999.44;;;7.42;100.00
55289;BME280;41154;45.394;5.734;2022-11-20T11:05:25;96994.81;;;7.61;100.00
55289;BME280;41154;45.394;5.734;2022-11-20T11:07:55;96995.88;;;7.06;100.00
55289;BME280;41154;45.394;5.734;2022-11-20T11:10:32;96998.31;;;7.73;100.00
55289;BME280;41154;45.394;5.734;2022-11-20T11:13:01;97004.34;;;7.81;100.00
55289;BME280;41154;45.394;5.734;2022-11-20T11:15:39;96993.28;;;8.01;100.00
55289;BME280;41154;45.394;5.734;2022-11-20T11:18:08;96991.56;;;7.71;100.00
55289;BME280;41154;45.394;5.734;2022-11-20T11:20:34;96981.59;;;7.78;100.00
55289;BME280;41154;45.394;5.734;2022-11-20T11:23:00;96973.91;;;7.94;100.00
55289;BME280;41154;45.394;5.734;2022-11-20T11:27:57;96960.78;;;8.04;100.00
55289;BME280;41154;45.394;5.734;2022-11-20T11:30:25;96955.13;;;7.77;100.00
55289;BME280;41154;45.394;5.734;2022-11-20T11:33:05;96947.22;;;7.94;100.00
55289;BME280;41154;45.394;5.734;2022-11-20T11:35:32;96926.16;;;8.09;100.00
55289;BME280;41154;45.394;5.734;2022-11-20T11:38:06;96924.31;;;7.98;100.00
55289;BME280;41154;45.394;5.734;2022-11-20T11:40:39;96918.25;;;8.14;100.00
55289;BME280;41154;45.394;5.734;2022-11-20T11:43:15;96923.03;;;8.41;100.00
55289;BME280;41154;45.394;5.734;2022-11-20T11:46:04;96901.72;;;7.77;100.00
55289;BME280;41154;45.394;5.734;2022-11-20T11:48:30;96900.44;;;7.55;100.00
55289;BME280;41154;45.394;5.734;2022-11-20T11:50:56;96898.47;;;7.74;100.00
55289;BME280;41154;45.394;5.734;2022-11-20T11:53:23;96884.06;;;7.76;100.00
55289;BME280;41154;45.394;5.734;2022-11-20T11:56:03;96879.59;;;7.93;100.00
55289;BME280;41154;45.394;5.734;2022-11-20T11:58:49;96880.81;;;7.85;100.00
55289;BME280;41154;45.394;5.734;2022-11-20T12:04:05;96872.34;;;7.77;100.00
55289;BME280;41154;45.394;5.734;2022-11-20T12:06:39;96862.97;;;7.38;100.00
55289;BME280;41154;45.394;5.734;2022-11-20T12:09:11;96857.28;;;7.35;100.00
55289;BME280;41154;45.394;5.734;2022-11-20T12:12:48;96856.22;;;7.48;100.00
55289;BME280;41154;45.394;5.734;2022-11-20T12:14:43;96840.28;;;7.88;100.00
55289;BME280;41154;45.394;5.734;2022-11-20T12:17:12;96839.38;;;7.71;100.00
55289;BME280;41154;45.394;5.734;2022-11-20T12:19:38;96826.88;;;8.00;100.00
55289;BME280;41154;45.394;5.734;2022-11-20T12:25:10;96796.50;;;7.89;100.00
55289;BME280;41154;45.394;5.734;2022-11-20T12:30:12;96812.81;;;7.64;100.00
55289;BME280;41154;45.394;5.734;2022-11-20T12:33:04;96797.44;;;7.83;100.00
55289;BME280;41154;45.394;5.734;2022-11-20T12:38:40;96765.63;;;7.82;100.00
55289;BME280;41154;45.394;5.734;2022-11-20T12:50:30;96757.94;;;8.14;100.00
55289;BME280;41154;45.394;5.734;2022-11-20T12:59:12;96758.28;;;8.35;100.00
55289;BME280;41154;45.394;5.734;2022-11-20T13:01:50;96757.97;;;8.31;100.00
55289;BME280;41154;45.394;5.734;2022-11-20T13:07:04;96760.88;;;8.30;100.00
55289;BME280;41154;45.394;5.734;2022-11-20T13:09:32;96778.63;;;8.36;100.00
55289;BME280;41154;45.394;5.734;2022-11-20T13:12:19;96782.66;;;8.21;100.00
55289;BME280;41154;45.394;5.734;2022-11-20T13:17:58;96805.03;;;8.32;100.00
55289;BME280;41154;45.394;5.734;2022-11-20T13:20:26;96805.13;;;8.37;100.00
55289;BME280;41154;45.394;5.734;2022-11-20T13:22:54;96783.97;;;8.36;100.00
55289;BME280;41154;45.394;5.734;2022-11-20T13:25:34;96794.34;;;8.03;100.00
55289;BME280;41154;45.394;5.734;2022-11-20T13:30:54;96812.72;;;7.47;100.00
55289;BME280;41154;45.394;5.734;2022-11-20T13:33:29;96816.09;;;7.43;100.00
55289;BME280;41154;45.394;5.734;2022-11-20T13:36:02;96808.22;;;7.36;100.00
55289;BME280;41154;45.394;5.734;2022-11-20T13:38:49;96817.28;;;7.23;100.00
55289;BME280;41154;45.394;5.734;2022-11-20T13:41:34;96811.50;;;7.14;100.00
55289;BME280;41154;45.394;5.734;2022-11-20T13:46:37;96794.88;;;7.36;100.00
55289;BME280;41154;45.394;5.734;2022-11-20T13:49:10;96788.22;;;7.62;100.00
55289;BME280;41154;45.394;5.734;2022-11-20T13:51:50;96789.34;;;7.66;100.00
55289;BME280;41154;45.394;5.734;2022-11-20T13:54:30;96787.13;;;7.75;100.00
55289;BME280;41154;45.394;5.734;2022-11-20T13:59:57;96781.53;;;7.88;100.00
55289;BME280;41154;45.394;5.734;2022-11-20T14:02:27;96778.28;;;7.86;100.00
55289;BME280;41154;45.394;5.734;2022-11-20T14:04:57;96785.81;;;7.89;100.00
55289;BME280;41154;45.394;5.734;2022-11-20T14:07:31;96772.44;;;7.89;100.00
55289;BME280;41154;45.394;5.734;2022-11-20T14:09:58;96762.06;;;7.76;100.00
55289;BME280;41154;45.394;5.734;2022-11-20T14:12:29;96761.06;;;7.65;100.00
55289;BME280;41154;45.394;5.734;2022-11-20T14:14:56;96749.47;;;7.60;100.00
55289;BME280;41154;45.394;5.734;2022-11-20T14:17:29;96747.81;;;7.59;100.00
55289;BME280;41154;45.394;5.734;2022-11-20T14:19:59;96747.97;;;7.52;100.00
55289;BME280;41154;45.394;5.734;2022-11-20T14:22:27;96746.69;;;7.54;100.00
55289;BME280;41154;45.394;5.734;2022-11-20T14:25:06;96743.44;;;7.52;100.00